Elevon, Virginia
Current Conditions -  °F | °C
As of 11:35 AM on Friday 19 Dec 2014 (Local Time) from KXSA Reporting Station
Clear Clear  
Wind Chill: 35°   Ceiling: Unl
Heat Index: 41°   Visibility: 10mi
Dew Point: 20°   Wind: 10mph
Humidity: 43%   Direction: 340°NNW
Pressure: 30.17"   Gusts: NA
Location:  38.03°N, 76.9626°W
Report Text: KXSA 191635Z AUTO 34009KT 10SM CLR 05/M06 A3017 RMK AO2 T00521065
Loading
Personal Weather Stations






























Interactive Weather Map New forecast layout! Learn more

10-Day Weather Forecast

Advertisements
Track Severe Weather on mobile